createdAt,value
2023-04-26T00:03:14.745Z,101434.94
2023-04-26T00:08:19.909Z,101437.44
2023-04-26T00:13:21.881Z,101431.97
2023-04-26T00:18:23.828Z,101439.69
2023-04-26T00:23:26.276Z,101444.16
2023-04-26T00:28:31.741Z,101443.63
2023-04-26T00:33:33.902Z,101438.41
2023-04-26T00:38:36.112Z,101445.31
2023-04-26T00:43:38.514Z,101434.91
2023-04-26T00:48:41.268Z,101439.88
2023-04-26T00:53:43.568Z,101414.03
2023-04-26T00:58:46.396Z,101419.00
2023-04-26T01:05:18.262Z,101413.28
2023-04-26T01:10:21.445Z,101426.22
2023-04-26T01:15:24.732Z,101427.59
2023-04-26T01:20:27.127Z,101415.75
2023-04-26T01:25:30.150Z,101413.59
2023-04-26T01:30:32.334Z,101420.16
2023-04-26T01:35:38.231Z,101413.31
2023-04-26T01:40:43.729Z,101404.81
2023-04-26T01:45:48.604Z,101404.84
2023-04-26T01:51:05.634Z,101415.03
2023-04-26T01:56:08.851Z,101400.19
2023-04-26T02:01:12.700Z,101409.25
2023-04-26T02:06:17.148Z,101404.84
2023-04-26T02:11:19.613Z,101415.28
2023-04-26T02:16:23.027Z,101410.59
2023-04-26T02:21:58.000Z,101400.41
2023-04-26T02:27:06.222Z,101398.78
2023-04-26T02:32:10.455Z,101395.50
2023-04-26T02:37:12.213Z,101401.06
2023-04-26T02:42:14.206Z,101389.50
2023-04-26T02:47:16.927Z,101381.56
2023-04-26T02:52:19.017Z,101374.19
2023-04-26T02:57:20.873Z,101379.72
2023-04-26T03:02:23.317Z,101391.31
2023-04-26T03:07:25.902Z,101390.78
2023-04-26T03:12:28.474Z,101395.47
2023-04-26T03:17:30.808Z,101407.84
2023-04-26T03:22:34.410Z,101400.72
2023-04-26T03:27:36.558Z,101399.06
2023-04-26T03:32:40.959Z,101380.94
2023-04-26T03:37:43.551Z,101374.63
2023-04-26T03:42:48.187Z,101383.97
2023-04-26T03:47:51.078Z,101373.25
2023-04-26T03:52:54.070Z,101369.97
2023-04-26T03:57:56.081Z,101365.31
2023-04-26T04:08:22.702Z,101377.75
2023-04-26T04:13:25.002Z,101393.72
2023-04-26T04:18:27.461Z,101404.19
2023-04-26T04:23:29.512Z,101410.25
2023-04-26T04:28:32.707Z,101410.88
2023-04-26T04:33:34.951Z,101411.97
2023-04-26T04:38:37.398Z,101414.16
2023-04-26T04:43:40.831Z,101408.13
2023-04-26T04:48:44.515Z,101410.34
2023-04-26T04:53:46.853Z,101410.34
2023-04-26T04:58:49.229Z,101424.38
2023-04-26T05:03:57.838Z,101426.28
2023-04-26T05:09:01.715Z,101430.97
2023-04-26T05:14:07.189Z,101426.28
2023-04-26T05:19:09.787Z,101431.22
2023-04-26T05:24:12.802Z,101439.19
2023-04-26T05:29:15.763Z,101443.03
2023-04-26T05:34:50.232Z,101444.38
2023-04-26T05:39:52.528Z,101452.59
2023-04-26T05:44:59.027Z,101469.06
2023-04-26T05:50:02.466Z,101472.88
2023-04-26T05:55:06.021Z,101481.09
2023-04-26T06:00:09.979Z,101477.19
2023-04-26T06:05:20.120Z,101482.06
2023-04-26T06:10:23.080Z,101484.19
2023-04-26T06:15:25.485Z,101507.53
2023-04-26T06:20:27.900Z,101497.28
2023-04-26T06:25:29.952Z,101503.84
2023-04-26T06:30:32.867Z,101517.84
2023-04-26T06:35:43.057Z,101521.09
2023-04-26T06:40:46.797Z,101519.06
2023-04-26T06:45:49.708Z,101513.44
2023-04-26T06:50:54.599Z,101508.16
2023-04-26T06:55:58.185Z,101511.69
2023-04-26T07:01:00.231Z,101512.31
2023-04-26T07:06:02.484Z,101515.41
2023-04-26T07:11:10.441Z,101519.09
2023-04-26T07:16:12.722Z,101518.16
2023-04-26T07:21:15.406Z,101524.56
2023-04-26T07:26:17.603Z,101520.38
2023-04-26T07:31:20.664Z,101514.84
2023-04-26T07:36:24.559Z,101521.84
2023-04-26T07:41:27.184Z,101516.44
2023-04-26T07:46:29.340Z,101521.63
2023-04-26T07:51:32.048Z,101526.44
2023-04-26T07:56:34.555Z,101529.38
2023-04-26T08:01:37.336Z,101525.66
2023-04-26T08:06:39.468Z,101526.25
2023-04-26T08:11:42.217Z,101526.06
2023-04-26T08:16:44.683Z,101535.00
2023-04-26T08:21:46.816Z,101539.28
2023-04-26T08:26:49.077Z,101536.94
2023-04-26T08:31:51.128Z,101543.38
2023-04-26T08:36:53.702Z,101535.97
2023-04-26T08:42:00.050Z,101546.13
2023-04-26T08:47:38.610Z,101552.09
2023-04-26T08:52:42.295Z,101559.16
2023-04-26T08:57:47.652Z,101563.25
2023-04-26T09:02:52.150Z,101570.47
2023-04-26T09:08:02.293Z,101581.13
2023-04-26T09:13:04.398Z,101579.03
2023-04-26T09:18:23.644Z,101572.59
2023-04-26T09:23:25.770Z,101590.09
2023-04-26T09:28:27.746Z,101587.31
2023-04-26T09:33:29.911Z,101580.59
2023-04-26T09:38:42.716Z,101592.50
2023-04-26T09:43:44.871Z,101584.81
2023-04-26T09:49:00.941Z,101598.63
2023-04-26T10:24:45.465Z,101609.47
2023-04-26T10:30:10.235Z,101599.19
2023-04-26T10:35:13.869Z,101594.25
2023-04-26T10:40:25.872Z,101592.88
2023-04-26T10:45:30.307Z,101589.63
2023-04-26T10:50:32.664Z,101585.13
2023-04-26T10:55:46.790Z,101593.53
2023-04-26T11:01:05.160Z,101597.03
2023-04-26T11:06:50.918Z,101592.91
2023-04-26T11:12:33.888Z,101586.88
2023-04-26T11:35:57.938Z,101563.69
2023-04-26T11:51:52.469Z,101547.03
2023-04-26T11:56:54.900Z,101545.81
2023-04-26T12:07:07.108Z,101552.56
2023-04-26T12:12:09.262Z,101536.59
2023-04-26T12:17:15.246Z,101535.72
2023-04-26T12:22:22.158Z,101542.44
2023-04-26T12:27:24.596Z,101536.53
2023-04-26T12:32:27.113Z,101524.56
2023-04-26T12:37:32.004Z,101519.38
2023-04-26T12:42:34.109Z,101519.47
2023-04-26T12:47:36.364Z,101512.19
2023-04-26T12:52:41.694Z,101522.19
2023-04-26T12:57:45.183Z,101530.81
2023-04-26T13:02:47.605Z,101532.50
2023-04-26T13:07:49.866Z,101534.25
2023-04-26T13:12:53.929Z,101530.53
2023-04-26T13:17:58.902Z,101524.91
2023-04-26T13:23:00.927Z,101530.25
2023-04-26T13:28:03.493Z,101523.38
2023-04-26T13:33:05.649Z,101515.66
2023-04-26T13:38:07.756Z,101517.19
2023-04-26T13:43:09.909Z,101513.91
2023-04-26T13:48:11.893Z,101507.38
2023-04-26T13:53:14.026Z,101501.94
2023-04-26T13:58:16.421Z,101497.25
2023-04-26T14:03:25.632Z,101503.09
2023-04-26T14:08:27.791Z,101510.38
2023-04-26T14:13:32.462Z,101495.31
2023-04-26T14:18:34.938Z,101480.69
2023-04-26T14:23:37.260Z,101474.75
2023-04-26T14:28:41.173Z,101473.91
2023-04-26T14:33:43.306Z,101473.91
2023-04-26T14:38:45.876Z,101475.53
2023-04-26T14:43:47.994Z,101464.50
2023-04-26T14:48:49.961Z,101455.50
2023-04-26T14:53:52.352Z,101448.25
2023-04-26T14:58:54.509Z,101443.84
2023-04-26T15:03:59.925Z,101441.59
2023-04-26T15:09:02.781Z,101449.41
2023-04-26T15:14:04.677Z,101435.56
2023-04-26T15:19:08.762Z,101443.44
2023-04-26T15:24:11.404Z,101441.91
2023-04-26T15:29:13.688Z,101431.19
2023-04-26T15:34:19.095Z,101445.44
2023-04-26T15:39:21.088Z,101429.88
2023-04-26T15:44:23.151Z,101413.22
2023-04-26T15:49:27.902Z,101417.63
2023-04-26T15:54:29.913Z,101420.06
2023-04-26T15:59:32.673Z,101406.69
2023-04-26T16:04:34.823Z,101401.66
2023-04-26T16:09:37.369Z,101403.09
2023-04-26T16:14:39.298Z,101409.63
2023-04-26T16:19:41.428Z,101409.75
2023-04-26T16:24:43.626Z,101412.28
2023-04-26T16:29:47.563Z,101411.69
2023-04-26T16:34:49.819Z,101425.19
2023-04-26T16:39:55.948Z,101407.59
2023-04-26T16:44:58.080Z,101417.81
2023-04-26T16:50:00.339Z,101418.44
2023-04-26T16:55:03.051Z,101417.91
2023-04-26T17:00:08.099Z,101427.28
2023-04-26T17:05:10.972Z,101431.13
2023-04-26T17:10:13.067Z,101419.75
2023-04-26T17:15:18.124Z,101411.56
2023-04-26T17:20:20.079Z,101409.69
2023-04-26T17:25:23.614Z,101403.38
2023-04-26T17:30:25.871Z,101407.16
2023-04-26T17:35:27.950Z,101404.91
2023-04-26T17:40:29.981Z,101411.47
2023-04-26T17:45:32.259Z,101407.06
2023-04-26T17:50:34.482Z,101422.59
2023-04-26T17:55:36.554Z,101428.72
2023-04-26T18:00:38.605Z,101434.22
2023-04-26T18:05:40.782Z,101438.41
2023-04-26T18:10:48.609Z,101430.50
2023-04-26T18:15:51.518Z,101432.31
2023-04-26T18:20:53.484Z,101437.94
2023-04-26T18:25:56.057Z,101432.81
2023-04-26T18:30:59.015Z,101447.50
2023-04-26T18:36:01.048Z,101437.28
2023-04-26T18:41:03.557Z,101427.22
2023-04-26T18:46:14.749Z,101434.75
2023-04-26T18:51:16.917Z,101442.19
2023-04-26T18:56:18.953Z,101446.16
2023-04-26T19:01:21.513Z,101451.13
2023-04-26T19:06:23.552Z,101459.66
2023-04-26T19:11:25.522Z,101474.31
2023-04-26T19:16:27.797Z,101484.00
2023-04-26T19:21:30.058Z,101485.88
2023-04-26T19:26:36.720Z,101485.28
2023-04-26T19:31:38.825Z,101499.31
2023-04-26T19:36:42.081Z,101508.19
2023-04-26T19:41:45.235Z,101516.72
2023-04-26T19:46:47.510Z,101526.06
2023-04-26T19:51:49.474Z,101538.66
2023-04-26T19:56:52.068Z,101539.41
2023-04-26T20:01:54.349Z,101536.88
2023-04-26T20:06:57.338Z,101537.94
2023-04-26T20:12:00.242Z,101545.91
2023-04-26T20:17:02.657Z,101544.50
2023-04-26T20:22:04.848Z,101553.88
2023-04-26T20:27:06.998Z,101557.75
2023-04-26T20:32:09.058Z,101554.00
2023-04-26T20:37:11.032Z,101562.00
2023-04-26T20:42:13.147Z,101564.44
2023-04-26T20:47:15.568Z,101565.28
2023-04-26T20:52:17.637Z,101573.00
2023-04-26T22:45:01.426Z,101616.78
2023-04-26T22:50:04.607Z,101615.00
2023-04-26T22:55:10.082Z,101615.72
2023-04-26T23:00:15.231Z,101615.25
2023-04-26T23:05:17.631Z,101612.00
2023-04-26T23:10:19.785Z,101623.66
2023-04-26T23:15:22.092Z,101625.63
2023-04-26T23:20:24.226Z,101639.19
2023-04-26T23:25:26.792Z,101634.00
2023-04-26T23:30:29.057Z,101625.50
2023-04-26T23:35:31.394Z,101628.31
2023-04-26T23:40:33.632Z,101628.88
2023-04-26T23:45:36.017Z,101637.72
2023-04-26T23:50:39.161Z,101639.13
2023-04-26T23:55:41.527Z,101627.03
